createdAt,value
2022-08-05T00:03:01.680Z,92.59
2022-08-05T00:06:29.121Z,93.00
2022-08-05T00:09:40.855Z,93.78
2022-08-05T00:12:56.668Z,94.90
2022-08-05T00:16:06.827Z,94.65
2022-08-05T00:19:16.983Z,92.96
2022-08-05T00:22:31.335Z,92.04
2022-08-05T00:25:45.544Z,92.52
2022-08-05T00:28:54.716Z,92.42
2022-08-05T00:32:12.853Z,93.29
2022-08-05T00:35:23.647Z,93.63
2022-08-05T00:38:44.384Z,94.80
2022-08-05T00:41:55.907Z,95.46
2022-08-05T00:45:11.719Z,95.00
2022-08-05T00:48:27.599Z,94.95
2022-08-05T00:51:50.279Z,95.62
2022-08-05T00:55:00.980Z,95.90
2022-08-05T00:58:11.363Z,96.19
2022-08-05T01:01:42.892Z,96.85
2022-08-05T01:04:50.477Z,96.50
2022-08-05T01:08:40.846Z,97.09
2022-08-05T01:11:39.514Z,96.95
2022-08-05T01:14:56.961Z,96.66
2022-08-05T01:18:13.925Z,96.43
2022-08-05T01:21:58.310Z,96.91
2022-08-05T01:25:56.893Z,97.16
2022-08-05T01:29:15.067Z,96.81
2022-08-05T01:32:29.073Z,96.24
2022-08-05T01:35:52.010Z,95.81
2022-08-05T01:39:02.921Z,95.73
2022-08-05T01:42:15.714Z,95.23
2022-08-05T01:45:27.812Z,95.57
2022-08-05T01:48:44.973Z,95.29
2022-08-05T01:52:17.637Z,95.30
2022-08-05T01:55:30.309Z,95.54
2022-08-05T01:58:45.183Z,95.50
2022-08-05T02:02:15.940Z,94.57
2022-08-05T02:05:38.249Z,94.79
2022-08-05T02:08:58.425Z,94.55
2022-08-05T02:12:14.043Z,94.07
2022-08-05T02:15:33.442Z,93.94
2022-08-05T02:18:51.735Z,94.60
2022-08-05T02:22:25.939Z,94.59
2022-08-05T02:25:49.770Z,94.11
2022-08-05T02:29:00.585Z,93.81
2022-08-05T02:32:12.695Z,93.44
2022-08-05T02:35:38.151Z,93.53
2022-08-05T02:39:03.127Z,92.98
2022-08-05T02:42:12.372Z,92.96
2022-08-05T02:45:52.316Z,93.07
2022-08-05T02:49:02.859Z,93.15
2022-08-05T02:52:29.383Z,92.45
2022-08-05T02:55:52.113Z,92.33
2022-08-05T02:59:06.668Z,92.64
2022-08-05T03:02:18.533Z,91.38
2022-08-05T03:06:54.854Z,90.59
2022-08-05T03:08:57.734Z,90.82
2022-08-05T03:12:09.463Z,91.60
2022-08-05T03:15:18.124Z,91.80
2022-08-05T03:18:30.018Z,92.81
2022-08-05T03:21:41.608Z,92.67
2022-08-05T03:25:02.324Z,93.51
2022-08-05T03:28:30.289Z,94.24
2022-08-05T03:31:55.557Z,94.20
2022-08-05T03:35:08.880Z,94.41
2022-08-05T03:38:32.950Z,94.78
2022-08-05T03:41:48.154Z,95.91
2022-08-05T03:45:01.627Z,96.69
2022-08-05T03:48:11.760Z,96.84
2022-08-05T03:52:48.554Z,96.81
2022-08-05T03:56:05.809Z,97.32
2022-08-05T03:58:41.190Z,97.26
2022-08-05T04:01:53.088Z,97.12
2022-08-05T04:05:11.095Z,97.03
2022-08-05T04:08:36.205Z,97.48
2022-08-05T04:11:47.610Z,97.36
2022-08-05T04:15:02.817Z,97.81
2022-08-05T04:18:15.891Z,98.49
2022-08-05T04:22:10.322Z,99.38
2022-08-05T04:24:59.844Z,98.74
2022-08-05T04:28:11.419Z,98.58
2022-08-05T04:31:22.837Z,98.70
2022-08-05T04:34:42.663Z,99.15
2022-08-05T04:38:02.105Z,98.99
2022-08-05T04:41:15.345Z,97.96
2022-08-05T04:44:29.363Z,96.22
2022-08-05T04:47:42.828Z,96.43
2022-08-05T04:51:03.043Z,96.03
2022-08-05T04:54:21.861Z,97.35
2022-08-05T04:57:37.316Z,99.36
2022-08-05T05:00:46.594Z,98.45
2022-08-05T05:04:00.719Z,96.30
2022-08-05T05:07:09.861Z,95.52
2022-08-05T05:10:18.349Z,94.49
2022-08-05T05:13:26.885Z,94.25
2022-08-05T05:16:40.596Z,94.49
2022-08-05T05:19:50.315Z,93.73
2022-08-05T05:23:03.140Z,92.66
2022-08-05T05:26:17.381Z,91.25
2022-08-05T05:29:40.779Z,91.14
2022-08-05T05:32:54.695Z,88.88
2022-08-05T05:36:04.431Z,86.71
2022-08-05T05:39:13.219Z,84.64
2022-08-05T05:42:22.672Z,82.60
2022-08-05T05:45:32.336Z,81.25
2022-08-05T05:48:41.747Z,79.21
2022-08-05T05:51:53.732Z,78.08
2022-08-05T05:55:07.385Z,77.70
2022-08-05T05:58:21.313Z,76.74
2022-08-05T06:01:57.698Z,72.32
2022-08-05T06:05:16.697Z,70.06
2022-08-05T06:08:31.562Z,68.21
2022-08-05T06:11:41.377Z,68.03
2022-08-05T06:15:11.443Z,64.41
2022-08-05T06:18:32.650Z,61.17
2022-08-05T06:21:49.768Z,56.86
2022-08-05T06:25:00.610Z,53.59
2022-08-05T06:28:20.755Z,52.75
2022-08-05T06:31:32.045Z,53.91
2022-08-05T06:34:47.067Z,52.15
2022-08-05T06:37:59.023Z,50.68
2022-08-05T06:41:11.743Z,50.84
2022-08-05T06:44:21.988Z,51.11
2022-08-05T06:48:44.104Z,50.93
2022-08-05T06:51:00.193Z,50.89
2022-08-05T06:54:08.653Z,50.32
2022-08-05T06:58:02.504Z,47.36
2022-08-05T07:00:51.833Z,46.03
2022-08-05T07:04:00.578Z,45.25
2022-08-05T07:07:11.076Z,47.94
2022-08-05T07:10:32.416Z,48.22
2022-08-05T07:14:00.162Z,48.11
2022-08-05T07:17:59.792Z,49.96
2022-08-05T07:20:38.982Z,49.70
2022-08-05T07:23:49.941Z,49.56
2022-08-05T07:27:00.939Z,50.13
2022-08-05T07:30:24.188Z,51.59
2022-08-05T07:33:37.665Z,52.05
2022-08-05T07:36:51.334Z,53.78
2022-08-05T07:40:04.431Z,53.56
2022-08-05T07:43:28.394Z,53.67
2022-08-05T07:46:38.052Z,53.60
2022-08-05T07:49:54.358Z,52.60
2022-08-05T07:53:03.553Z,52.63
2022-08-05T07:57:01.345Z,51.13
2022-08-05T07:59:41.407Z,50.31
2022-08-05T08:06:39.525Z,51.31
2022-08-05T08:09:55.831Z,50.71
2022-08-05T08:13:11.936Z,52.74
2022-08-05T08:16:35.424Z,52.27
2022-08-05T08:20:10.828Z,53.29
2022-08-05T08:24:01.005Z,56.10
2022-08-05T08:26:50.841Z,55.43
2022-08-05T08:30:29.903Z,53.83
2022-08-05T08:33:38.390Z,52.04
2022-08-05T08:36:54.660Z,51.35
2022-08-05T08:40:08.231Z,50.44
2022-08-05T08:45:16.364Z,49.94
2022-08-05T08:46:49.289Z,49.67
2022-08-05T08:50:23.042Z,51.19
2022-08-05T08:53:35.382Z,50.70
2022-08-05T08:56:47.748Z,50.50
2022-08-05T09:00:01.603Z,52.41
2022-08-05T09:03:15.952Z,52.24
2022-08-05T09:06:30.817Z,52.70
2022-08-05T09:09:39.960Z,53.30
2022-08-05T09:12:51.037Z,51.15
2022-08-05T09:16:02.471Z,54.98
2022-08-05T09:19:14.585Z,54.81
2022-08-05T09:22:32.066Z,53.98
2022-08-05T09:26:01.504Z,53.30
2022-08-05T09:29:17.586Z,53.81
2022-08-05T09:32:45.716Z,53.56
2022-08-05T09:36:16.473Z,53.78
2022-08-05T09:39:39.551Z,53.31
2022-08-05T09:42:53.925Z,55.40
2022-08-05T09:46:08.699Z,55.60
2022-08-05T09:49:54.891Z,54.10
2022-08-05T09:52:59.481Z,55.68
2022-08-05T09:56:12.851Z,55.69
2022-08-05T09:59:27.737Z,55.48
2022-08-05T10:02:41.696Z,54.45
2022-08-05T10:06:14.779Z,53.54
2022-08-05T10:09:28.402Z,55.40
2022-08-05T10:12:49.872Z,55.73
2022-08-05T10:16:00.669Z,55.63
2022-08-05T10:19:13.754Z,56.56
2022-08-05T10:22:30.067Z,53.04
2022-08-05T10:25:39.608Z,53.27
2022-08-05T10:28:49.611Z,54.34
2022-08-05T10:32:54.989Z,54.31
2022-08-05T10:35:40.441Z,53.94
2022-08-05T10:39:00.280Z,52.59
2022-08-05T10:42:18.404Z,53.21
2022-08-05T10:45:39.867Z,53.83
2022-08-05T10:48:57.163Z,54.22
2022-08-05T10:52:10.515Z,53.12
2022-08-05T10:55:19.483Z,52.62
2022-08-05T10:58:36.029Z,53.42
2022-08-05T11:02:32.959Z,52.97
2022-08-05T11:05:40.217Z,53.42
2022-08-05T11:09:32.298Z,53.02
2022-08-05T11:12:55.670Z,53.87
2022-08-05T11:16:47.810Z,53.53
2022-08-05T11:20:11.500Z,53.79
2022-08-05T11:24:03.076Z,51.88
2022-08-05T11:27:51.154Z,51.73
2022-08-05T11:31:57.714Z,51.71
2022-08-05T11:34:57.499Z,51.55
2022-08-05T11:38:29.935Z,50.76
2022-08-05T11:42:00.982Z,50.88
2022-08-05T11:45:23.140Z,50.08
2022-08-05T11:48:37.643Z,51.50
2022-08-05T11:51:51.198Z,51.20
2022-08-05T11:55:07.099Z,52.61
2022-08-05T11:58:29.605Z,49.07
2022-08-05T12:01:53.054Z,49.31
2022-08-05T12:05:07.710Z,50.22
2022-08-05T12:08:26.426Z,50.13
2022-08-05T12:11:40.229Z,50.08
2022-08-05T12:14:49.349Z,48.86
2022-08-05T12:18:04.425Z,49.41
2022-08-05T12:21:24.411Z,48.89
2022-08-05T12:24:36.982Z,49.56
2022-08-05T12:27:53.525Z,50.50
2022-08-05T12:31:03.258Z,50.55
2022-08-05T12:34:21.178Z,46.96
2022-08-05T12:37:31.912Z,47.76
2022-08-05T12:40:43.501Z,46.68
2022-08-05T12:43:55.955Z,48.43
2022-08-05T12:47:04.728Z,46.47
2022-08-05T12:50:19.757Z,47.77
2022-08-05T12:53:37.007Z,47.93
2022-08-05T12:56:52.208Z,48.47
2022-08-05T13:01:58.474Z,45.18
2022-08-05T13:03:32.346Z,46.90
2022-08-05T13:06:52.095Z,47.04
2022-08-05T13:10:01.074Z,47.58
2022-08-05T13:13:10.612Z,47.30
2022-08-05T13:16:56.646Z,46.29
2022-08-05T13:20:10.039Z,46.84
2022-08-05T13:23:22.782Z,47.15
2022-08-05T13:26:31.551Z,47.42
2022-08-05T13:29:39.809Z,46.42
2022-08-05T13:33:08.869Z,46.10
2022-08-05T13:36:22.977Z,46.55
2022-08-05T13:40:16.235Z,48.29
2022-08-05T13:43:11.971Z,48.13
2022-08-05T13:46:50.993Z,47.73
2022-08-05T13:49:50.553Z,50.16
2022-08-05T13:52:59.324Z,47.61
2022-08-05T13:56:18.414Z,48.88
2022-08-05T13:59:30.850Z,49.26
2022-08-05T14:02:39.962Z,48.98
2022-08-05T14:06:24.422Z,47.39
2022-08-05T14:09:17.004Z,49.15
2022-08-05T14:12:32.455Z,48.47
2022-08-05T14:16:05.116Z,47.96
2022-08-05T14:19:09.942Z,48.72
2022-08-05T14:22:18.958Z,48.54
2022-08-05T14:25:30.073Z,49.80
2022-08-05T14:28:51.919Z,49.49
2022-08-05T14:32:12.398Z,49.81
2022-08-05T14:35:37.447Z,49.11
2022-08-05T14:38:54.026Z,48.21
2022-08-05T14:42:20.962Z,48.20
2022-08-05T14:45:31.642Z,47.95
2022-08-05T14:48:39.969Z,48.69
2022-08-05T14:51:48.558Z,48.34
2022-08-05T14:55:05.148Z,47.72
2022-08-05T14:58:14.115Z,47.16
2022-08-05T15:01:47.904Z,47.32
2022-08-05T15:04:52.830Z,47.65
2022-08-05T15:08:05.329Z,47.00
2022-08-05T15:11:22.333Z,48.29
2022-08-05T15:14:50.883Z,48.75
2022-08-05T15:18:03.788Z,50.06
2022-08-05T15:21:14.340Z,47.84
2022-08-05T15:24:29.601Z,48.18
2022-08-05T15:27:39.750Z,48.81
2022-08-05T15:30:53.343Z,48.91
2022-08-05T15:34:18.468Z,48.71
2022-08-05T15:38:08.559Z,48.30
2022-08-05T15:41:22.429Z,48.71
2022-08-05T15:44:30.423Z,48.56
2022-08-05T15:47:39.597Z,48.64
2022-08-05T15:50:49.619Z,49.49
2022-08-05T15:53:59.573Z,48.97
2022-08-05T15:57:09.450Z,48.32
2022-08-05T16:00:32.565Z,49.44
2022-08-05T16:03:50.493Z,49.42
2022-08-05T16:07:00.782Z,47.70
2022-08-05T16:10:11.665Z,47.28
2022-08-05T16:13:23.901Z,47.40
2022-08-05T16:16:35.152Z,47.15
2022-08-05T16:20:05.693Z,48.09
2022-08-05T16:23:13.298Z,51.38
2022-08-05T16:26:26.474Z,52.45
2022-08-05T16:29:37.642Z,52.55
2022-08-05T16:32:46.093Z,52.73
2022-08-05T16:35:54.989Z,52.79
2022-08-05T16:39:04.844Z,53.29
2022-08-05T16:42:18.558Z,52.77
2022-08-05T16:46:06.939Z,52.56
2022-08-05T16:49:05.122Z,52.50
2022-08-05T16:52:13.602Z,53.19
2022-08-05T16:55:24.496Z,53.72
2022-08-05T16:58:33.159Z,53.71
2022-08-05T17:01:53.979Z,52.00
2022-08-05T17:05:04.415Z,50.76
2022-08-05T17:08:14.713Z,51.21
2022-08-05T17:11:48.273Z,52.44
2022-08-05T17:14:57.500Z,52.93
2022-08-05T17:18:06.826Z,53.70
2022-08-05T17:21:23.593Z,53.85
2022-08-05T17:24:38.767Z,53.95
2022-08-05T17:27:53.719Z,54.84
2022-08-05T17:31:08.143Z,55.89
2022-08-05T17:34:18.070Z,56.07
2022-08-05T17:37:40.616Z,57.35
2022-08-05T17:40:53.345Z,58.46
2022-08-05T17:44:03.010Z,59.80
2022-08-05T17:47:11.848Z,60.05
2022-08-05T17:50:27.822Z,60.83
2022-08-05T17:53:37.797Z,61.63
2022-08-05T17:56:48.963Z,61.79
2022-08-05T18:00:03.697Z,63.25
2022-08-05T18:03:24.077Z,62.50
2022-08-05T18:06:43.002Z,63.11
2022-08-05T18:10:00.297Z,63.18
2022-08-05T18:13:12.548Z,63.92
2022-08-05T18:16:22.996Z,65.11
2022-08-05T18:19:31.774Z,65.62
2022-08-05T18:22:54.775Z,65.92
2022-08-05T18:26:05.793Z,67.13
2022-08-05T18:29:13.976Z,67.69
2022-08-05T18:32:28.458Z,68.68
2022-08-05T18:35:49.473Z,69.33
2022-08-05T18:39:22.400Z,70.23
2022-08-05T18:42:37.823Z,71.19
2022-08-05T18:45:47.497Z,71.97
2022-08-05T18:49:20.847Z,73.05
2022-08-05T18:52:36.218Z,75.30
2022-08-05T18:55:44.886Z,74.17
2022-08-05T18:58:59.808Z,75.08
2022-08-05T19:02:11.590Z,74.66
2022-08-05T19:06:11.485Z,74.66
2022-08-05T19:09:07.729Z,74.67
2022-08-05T19:12:17.272Z,75.81
2022-08-05T19:16:00.011Z,75.00
2022-08-05T19:18:56.981Z,75.25
2022-08-05T19:22:07.527Z,75.33
2022-08-05T19:25:21.617Z,75.15
2022-08-05T19:28:42.283Z,75.43
2022-08-05T19:31:51.208Z,74.82
2022-08-05T19:34:59.869Z,73.50
2022-08-05T19:38:15.876Z,73.24
2022-08-05T19:41:58.505Z,76.60
2022-08-05T19:45:02.186Z,85.40
2022-08-05T19:48:17.673Z,94.08
2022-08-05T19:52:05.490Z,100.00
2022-08-05T19:55:00.552Z,100.00
2022-08-05T19:58:28.203Z,100.00
2022-08-05T20:01:37.969Z,100.00
2022-08-05T20:04:46.474Z,100.00
2022-08-05T20:07:59.057Z,100.00
2022-08-05T20:11:10.378Z,100.00
2022-08-05T20:14:26.767Z,100.00
2022-08-05T20:17:36.418Z,100.00
2022-08-05T20:20:45.693Z,100.00
2022-08-05T20:23:54.548Z,100.00
2022-08-05T20:27:11.313Z,100.00
2022-08-05T20:30:19.924Z,100.00
2022-08-05T20:33:28.706Z,100.00
2022-08-05T20:36:43.407Z,100.00
2022-08-05T20:39:52.264Z,100.00
2022-08-05T20:43:07.802Z,100.00
2022-08-05T20:46:16.226Z,100.00
2022-08-05T20:49:39.419Z,100.00
2022-08-05T20:52:51.212Z,100.00
2022-08-05T20:56:09.102Z,100.00
2022-08-05T20:59:26.896Z,100.00
2022-08-05T21:02:52.201Z,100.00
2022-08-05T21:06:01.603Z,100.00
2022-08-05T21:09:10.109Z,100.00
2022-08-05T21:12:21.730Z,100.00
2022-08-05T21:15:36.792Z,100.00
2022-08-05T21:18:45.680Z,100.00
2022-08-05T21:21:53.878Z,100.00
2022-08-05T21:25:02.519Z,100.00
2022-08-05T21:28:18.516Z,100.00
2022-08-05T21:31:41.521Z,100.00
2022-08-05T21:35:06.922Z,100.00
2022-08-05T21:38:19.117Z,100.00
2022-08-05T21:41:33.674Z,100.00
2022-08-05T21:44:42.958Z,100.00
2022-08-05T21:47:57.134Z,100.00
2022-08-05T21:52:16.093Z,100.00
2022-08-05T21:54:35.140Z,100.00
2022-08-05T21:57:45.552Z,100.00
2022-08-05T22:00:54.744Z,100.00
2022-08-05T22:04:19.589Z,100.00
2022-08-05T22:07:40.228Z,100.00
2022-08-05T22:11:00.994Z,100.00
2022-08-05T22:14:37.492Z,100.00
2022-08-05T22:17:48.740Z,100.00
2022-08-05T22:21:18.633Z,100.00
2022-08-05T22:24:52.324Z,100.00
2022-08-05T22:28:10.974Z,100.00
2022-08-05T22:31:20.710Z,100.00
2022-08-05T22:34:29.719Z,100.00
2022-08-05T22:37:58.573Z,100.00
2022-08-05T22:41:08.696Z,100.00
2022-08-05T22:44:18.986Z,100.00
2022-08-05T22:47:29.303Z,100.00
2022-08-05T22:50:38.873Z,100.00
2022-08-05T22:53:56.111Z,100.00
2022-08-05T22:57:05.689Z,100.00
2022-08-05T23:00:18.285Z,100.00
2022-08-05T23:03:59.315Z,100.00
2022-08-05T23:07:01.817Z,100.00
2022-08-05T23:10:12.463Z,100.00
2022-08-05T23:13:20.850Z,100.00
2022-08-05T23:16:47.439Z,100.00
2022-08-05T23:20:02.321Z,100.00
2022-08-05T23:23:11.973Z,100.00
2022-08-05T23:26:21.855Z,100.00
2022-08-05T23:29:34.482Z,100.00
2022-08-05T23:32:45.331Z,100.00
2022-08-05T23:35:55.160Z,100.00
2022-08-05T23:39:05.341Z,100.00
2022-08-05T23:42:17.092Z,100.00
2022-08-05T23:45:37.498Z,100.00
2022-08-05T23:48:46.211Z,100.00
2022-08-05T23:52:29.311Z,100.00
2022-08-05T23:55:39.281Z,100.00
2022-08-05T23:58:52.130Z,100.00
